sensor_id;sensor_type;location;lat;lon;timestamp;P1;durP1;ratioP1;P2;durP2;ratioP2
37383;SDS011;23258;49.718;11.082;2024-03-02T00:01:48;20.75;;;13.85;;
37383;SDS011;23258;49.718;11.082;2024-03-02T00:04:18;17.25;;;14.23;;
37383;SDS011;23258;49.718;11.082;2024-03-02T00:06:50;19.85;;;14.43;;
37383;SDS011;23258;49.718;11.082;2024-03-02T00:09:21;22.42;;;15.25;;
37383;SDS011;23258;49.718;11.082;2024-03-02T00:11:51;20.80;;;14.70;;
37383;SDS011;23258;49.718;11.082;2024-03-02T00:14:24;25.90;;;15.30;;
37383;SDS011;23258;49.718;11.082;2024-03-02T00:16:54;24.92;;;15.30;;
37383;SDS011;23258;49.718;11.082;2024-03-02T00:19:24;20.85;;;14.82;;
37383;SDS011;23258;49.718;11.082;2024-03-02T00:21:54;17.90;;;14.80;;
37383;SDS011;23258;49.718;11.082;2024-03-02T00:24:25;21.90;;;14.80;;
37383;SDS011;23258;49.718;11.082;2024-03-02T00:26:56;19.05;;;14.80;;
37383;SDS011;23258;49.718;11.082;2024-03-02T00:29:28;24.17;;;14.55;;
37383;SDS011;23258;49.718;11.082;2024-03-02T00:31:58;21.35;;;15.85;;
37383;SDS011;23258;49.718;11.082;2024-03-02T00:34:33;17.95;;;13.57;;
37383;SDS011;23258;49.718;11.082;2024-03-02T00:37:03;21.60;;;14.70;;
37383;SDS011;23258;49.718;11.082;2024-03-02T00:39:33;19.98;;;14.95;;
37383;SDS011;23258;49.718;11.082;2024-03-02T00:42:03;21.08;;;16.45;;
37383;SDS011;23258;49.718;11.082;2024-03-02T00:44:35;23.85;;;15.95;;
37383;SDS011;23258;49.718;11.082;2024-03-02T00:47:05;23.45;;;15.10;;
37383;SDS011;23258;49.718;11.082;2024-03-02T00:49:35;16.42;;;13.93;;
37383;SDS011;23258;49.718;11.082;2024-03-02T00:52:07;19.60;;;14.73;;
37383;SDS011;23258;49.718;11.082;2024-03-02T00:54:37;20.45;;;15.55;;
37383;SDS011;23258;49.718;11.082;2024-03-02T00:57:07;17.60;;;15.13;;
37383;SDS011;23258;49.718;11.082;2024-03-02T00:59:42;19.83;;;15.43;;
37383;SDS011;23258;49.718;11.082;2024-03-02T01:02:13;19.02;;;14.85;;
37383;SDS011;23258;49.718;11.082;2024-03-02T01:04:43;18.95;;;14.00;;
37383;SDS011;23258;49.718;11.082;2024-03-02T01:07:12;19.98;;;15.27;;
37383;SDS011;23258;49.718;11.082;2024-03-02T01:09:42;20.67;;;15.05;;
37383;SDS011;23258;49.718;11.082;2024-03-02T01:12:12;24.17;;;15.68;;
37383;SDS011;23258;49.718;11.082;2024-03-02T01:14:44;17.88;;;14.63;;
37383;SDS011;23258;49.718;11.082;2024-03-02T01:17:17;22.70;;;14.27;;
37383;SDS011;23258;49.718;11.082;2024-03-02T01:19:47;18.48;;;13.82;;
37383;SDS011;23258;49.718;11.082;2024-03-02T01:22:16;19.83;;;14.27;;
37383;SDS011;23258;49.718;11.082;2024-03-02T01:24:52;21.45;;;14.05;;
37383;SDS011;23258;49.718;11.082;2024-03-02T01:27:22;17.33;;;14.25;;
37383;SDS011;23258;49.718;11.082;2024-03-02T01:29:54;21.73;;;13.50;;
37383;SDS011;23258;49.718;11.082;2024-03-02T01:32:24;19.25;;;14.35;;
37383;SDS011;23258;49.718;11.082;2024-03-02T01:34:53;18.50;;;15.02;;
37383;SDS011;23258;49.718;11.082;2024-03-02T01:37:23;19.35;;;14.30;;
37383;SDS011;23258;49.718;11.082;2024-03-02T01:39:53;23.73;;;16.38;;
37383;SDS011;23258;49.718;11.082;2024-03-02T01:42:22;23.85;;;15.15;;
37383;SDS011;23258;49.718;11.082;2024-03-02T01:44:55;24.52;;;16.02;;
37383;SDS011;23258;49.718;11.082;2024-03-02T01:47:25;19.05;;;15.55;;
37383;SDS011;23258;49.718;11.082;2024-03-02T01:49:54;19.48;;;15.15;;
37383;SDS011;23258;49.718;11.082;2024-03-02T01:52:25;22.42;;;15.27;;
37383;SDS011;23258;49.718;11.082;2024-03-02T01:54:54;21.38;;;14.02;;
37383;SDS011;23258;49.718;11.082;2024-03-02T01:57:24;22.27;;;15.50;;
37383;SDS011;23258;49.718;11.082;2024-03-02T01:59:56;20.77;;;14.35;;
37383;SDS011;23258;49.718;11.082;2024-03-02T02:02:26;17.60;;;14.55;;
37383;SDS011;23258;49.718;11.082;2024-03-02T02:04:56;20.63;;;14.88;;
37383;SDS011;23258;49.718;11.082;2024-03-02T02:07:26;18.50;;;13.93;;
37383;SDS011;23258;49.718;11.082;2024-03-02T02:09:55;19.73;;;15.15;;
37383;SDS011;23258;49.718;11.082;2024-03-02T02:12:25;19.13;;;14.07;;
37383;SDS011;23258;49.718;11.082;2024-03-02T02:14:58;21.88;;;15.10;;
37383;SDS011;23258;49.718;11.082;2024-03-02T02:17:28;21.42;;;14.40;;
37383;SDS011;23258;49.718;11.082;2024-03-02T02:19:57;21.00;;;15.57;;
37383;SDS011;23258;49.718;11.082;2024-03-02T02:22:30;16.13;;;12.77;;
37383;SDS011;23258;49.718;11.082;2024-03-02T02:25:00;17.98;;;13.48;;
37383;SDS011;23258;49.718;11.082;2024-03-02T02:27:29;20.40;;;14.23;;
37383;SDS011;23258;49.718;11.082;2024-03-02T02:29:59;20.08;;;15.05;;
37383;SDS011;23258;49.718;11.082;2024-03-02T02:32:29;15.55;;;12.40;;
37383;SDS011;23258;49.718;11.082;2024-03-02T02:34:59;18.08;;;12.73;;
37383;SDS011;23258;49.718;11.082;2024-03-02T02:37:31;21.58;;;14.70;;
37383;SDS011;23258;49.718;11.082;2024-03-02T02:40:01;19.00;;;13.52;;
37383;SDS011;23258;49.718;11.082;2024-03-02T02:42:31;15.35;;;13.05;;
37383;SDS011;23258;49.718;11.082;2024-03-02T02:45:01;16.23;;;13.02;;
37383;SDS011;23258;49.718;11.082;2024-03-02T02:47:31;15.60;;;11.80;;
37383;SDS011;23258;49.718;11.082;2024-03-02T02:50:02;17.65;;;12.57;;
37383;SDS011;23258;49.718;11.082;2024-03-02T02:52:34;15.48;;;12.55;;
37383;SDS011;23258;49.718;11.082;2024-03-02T02:55:07;16.45;;;12.02;;
37383;SDS011;23258;49.718;11.082;2024-03-02T02:57:38;18.10;;;13.85;;
37383;SDS011;23258;49.718;11.082;2024-03-02T03:00:10;19.15;;;13.18;;
37383;SDS011;23258;49.718;11.082;2024-03-02T03:02:43;18.58;;;13.77;;
37383;SDS011;23258;49.718;11.082;2024-03-02T03:05:15;19.10;;;15.00;;
37383;SDS011;23258;49.718;11.082;2024-03-02T03:07:47;22.90;;;15.88;;
37383;SDS011;23258;49.718;11.082;2024-03-02T03:10:18;25.33;;;14.90;;
37383;SDS011;23258;49.718;11.082;2024-03-02T03:12:50;24.65;;;16.05;;
37383;SDS011;23258;49.718;11.082;2024-03-02T03:15:20;21.48;;;16.05;;
37383;SDS011;23258;49.718;11.082;2024-03-02T03:17:49;23.02;;;16.40;;
37383;SDS011;23258;49.718;11.082;2024-03-02T03:20:19;21.20;;;14.05;;
37383;SDS011;23258;49.718;11.082;2024-03-02T03:22:52;20.90;;;16.45;;
37383;SDS011;23258;49.718;11.082;2024-03-02T03:25:22;21.23;;;15.50;;
37383;SDS011;23258;49.718;11.082;2024-03-02T03:27:52;20.00;;;14.50;;
37383;SDS011;23258;49.718;11.082;2024-03-02T03:30:22;18.85;;;14.63;;
37383;SDS011;23258;49.718;11.082;2024-03-02T03:32:51;19.80;;;13.88;;
37383;SDS011;23258;49.718;11.082;2024-03-02T03:35:21;21.88;;;14.35;;
37383;SDS011;23258;49.718;11.082;2024-03-02T03:37:54;20.95;;;12.82;;
37383;SDS011;23258;49.718;11.082;2024-03-02T03:40:24;21.80;;;14.52;;
37383;SDS011;23258;49.718;11.082;2024-03-02T03:42:53;18.17;;;13.10;;
37383;SDS011;23258;49.718;11.082;2024-03-02T03:45:23;20.23;;;12.98;;
37383;SDS011;23258;49.718;11.082;2024-03-02T03:47:54;15.23;;;12.50;;
37383;SDS011;23258;49.718;11.082;2024-03-02T03:50:24;14.48;;;12.15;;
37383;SDS011;23258;49.718;11.082;2024-03-02T03:52:56;18.75;;;12.93;;
37383;SDS011;23258;49.718;11.082;2024-03-02T03:55:26;16.70;;;12.85;;
37383;SDS011;23258;49.718;11.082;2024-03-02T03:57:55;18.83;;;13.23;;
37383;SDS011;23258;49.718;11.082;2024-03-02T04:00:25;19.85;;;14.30;;
37383;SDS011;23258;49.718;11.082;2024-03-02T04:02:55;18.70;;;13.02;;
37383;SDS011;23258;49.718;11.082;2024-03-02T04:05:25;24.10;;;14.38;;
37383;SDS011;23258;49.718;11.082;2024-03-02T04:07:57;18.67;;;14.00;;
37383;SDS011;23258;49.718;11.082;2024-03-02T04:10:27;20.63;;;13.55;;
37383;SDS011;23258;49.718;11.082;2024-03-02T04:12:57;16.33;;;12.98;;
37383;SDS011;23258;49.718;11.082;2024-03-02T04:15:26;16.42;;;13.13;;
37383;SDS011;23258;49.718;11.082;2024-03-02T04:17:56;18.30;;;12.85;;
37383;SDS011;23258;49.718;11.082;2024-03-02T04:20:26;18.88;;;12.60;;
37383;SDS011;23258;49.718;11.082;2024-03-02T04:22:59;22.10;;;13.05;;
37383;SDS011;23258;49.718;11.082;2024-03-02T04:25:29;17.10;;;12.43;;
37383;SDS011;23258;49.718;11.082;2024-03-02T04:27:58;15.85;;;12.30;;
37383;SDS011;23258;49.718;11.082;2024-03-02T04:30:28;17.05;;;13.15;;
37383;SDS011;23258;49.718;11.082;2024-03-02T04:32:58;15.88;;;12.07;;
37383;SDS011;23258;49.718;11.082;2024-03-02T04:35:29;13.05;;;11.25;;
37383;SDS011;23258;49.718;11.082;2024-03-02T04:38:01;18.10;;;12.98;;
37383;SDS011;23258;49.718;11.082;2024-03-02T04:40:31;16.23;;;11.65;;
37383;SDS011;23258;49.718;11.082;2024-03-02T04:43:01;18.10;;;12.23;;
37383;SDS011;23258;49.718;11.082;2024-03-02T04:45:31;17.55;;;11.77;;
37383;SDS011;23258;49.718;11.082;2024-03-02T04:48:00;14.52;;;12.07;;
37383;SDS011;23258;49.718;11.082;2024-03-02T04:50:30;16.48;;;12.63;;
37383;SDS011;23258;49.718;11.082;2024-03-02T04:53:06;16.40;;;11.73;;
37383;SDS011;23258;49.718;11.082;2024-03-02T04:55:35;14.35;;;11.43;;
37383;SDS011;23258;49.718;11.082;2024-03-02T04:58:30;17.80;;;12.02;;
37383;SDS011;23258;49.718;11.082;2024-03-02T05:01:00;15.55;;;11.63;;
37383;SDS011;23258;49.718;11.082;2024-03-02T05:03:30;15.40;;;12.20;;
37383;SDS011;23258;49.718;11.082;2024-03-02T05:06:01;16.83;;;11.45;;
37383;SDS011;23258;49.718;11.082;2024-03-02T05:08:38;16.13;;;11.07;;
37383;SDS011;23258;49.718;11.082;2024-03-02T05:11:07;15.57;;;11.60;;
37383;SDS011;23258;49.718;11.082;2024-03-02T05:13:50;12.85;;;9.85;;
37383;SDS011;23258;49.718;11.082;2024-03-02T05:16:19;15.57;;;10.25;;
37383;SDS011;23258;49.718;11.082;2024-03-02T05:18:49;14.93;;;9.95;;
37383;SDS011;23258;49.718;11.082;2024-03-02T05:21:19;15.95;;;10.75;;
37383;SDS011;23258;49.718;11.082;2024-03-02T05:23:51;12.65;;;10.30;;
37383;SDS011;23258;49.718;11.082;2024-03-02T05:26:21;13.48;;;9.88;;
37383;SDS011;23258;49.718;11.082;2024-03-02T05:28:50;12.85;;;10.43;;
37383;SDS011;23258;49.718;11.082;2024-03-02T05:31:20;11.50;;;9.07;;
37383;SDS011;23258;49.718;11.082;2024-03-02T05:33:50;13.23;;;10.25;;
37383;SDS011;23258;49.718;11.082;2024-03-02T05:36:23;15.23;;;9.88;;
37383;SDS011;23258;49.718;11.082;2024-03-02T05:38:56;16.30;;;10.60;;
37383;SDS011;23258;49.718;11.082;2024-03-02T05:41:25;13.40;;;10.35;;
37383;SDS011;23258;49.718;11.082;2024-03-02T05:43:55;13.70;;;10.20;;
37383;SDS011;23258;49.718;11.082;2024-03-02T05:46:25;13.45;;;10.02;;
37383;SDS011;23258;49.718;11.082;2024-03-02T05:48:54;16.55;;;10.95;;
37383;SDS011;23258;49.718;11.082;2024-03-02T05:51:27;18.73;;;10.23;;
37383;SDS011;23258;49.718;11.082;2024-03-02T05:53:59;15.85;;;10.50;;
37383;SDS011;23258;49.718;11.082;2024-03-02T05:56:29;13.05;;;9.82;;
37383;SDS011;23258;49.718;11.082;2024-03-02T05:58:59;15.05;;;10.65;;
37383;SDS011;23258;49.718;11.082;2024-03-02T06:01:39;13.13;;;10.20;;
37383;SDS011;23258;49.718;11.082;2024-03-02T06:04:09;18.45;;;11.70;;
37383;SDS011;23258;49.718;11.082;2024-03-02T06:06:40;21.95;;;15.63;;
37383;SDS011;23258;49.718;11.082;2024-03-02T06:09:12;15.13;;;10.90;;
37383;SDS011;23258;49.718;11.082;2024-03-02T06:11:43;15.93;;;11.55;;
37383;SDS011;23258;49.718;11.082;2024-03-02T06:14:12;17.20;;;11.60;;
37383;SDS011;23258;49.718;11.082;2024-03-02T06:16:42;13.85;;;11.13;;
37383;SDS011;23258;49.718;11.082;2024-03-02T06:19:12;20.48;;;13.20;;
37383;SDS011;23258;49.718;11.082;2024-03-02T06:21:41;20.55;;;13.63;;
37383;SDS011;23258;49.718;11.082;2024-03-02T06:24:14;20.38;;;14.77;;
37383;SDS011;23258;49.718;11.082;2024-03-02T06:26:44;15.13;;;11.43;;
37383;SDS011;23258;49.718;11.082;2024-03-02T06:29:13;17.75;;;11.63;;
37383;SDS011;23258;49.718;11.082;2024-03-02T06:31:43;15.77;;;12.07;;
37383;SDS011;23258;49.718;11.082;2024-03-02T06:34:13;15.85;;;12.23;;
37383;SDS011;23258;49.718;11.082;2024-03-02T06:36:42;16.60;;;11.50;;
37383;SDS011;23258;49.718;11.082;2024-03-02T06:39:14;15.98;;;11.43;;
37383;SDS011;23258;49.718;11.082;2024-03-02T06:41:44;19.02;;;11.77;;
37383;SDS011;23258;49.718;11.082;2024-03-02T06:44:14;16.15;;;10.60;;
37383;SDS011;23258;49.718;11.082;2024-03-02T06:46:44;13.57;;;10.88;;
37383;SDS011;23258;49.718;11.082;2024-03-02T06:49:13;16.65;;;11.10;;
37383;SDS011;23258;49.718;11.082;2024-03-02T06:51:44;17.40;;;11.63;;
37383;SDS011;23258;49.718;11.082;2024-03-02T06:54:17;16.67;;;11.48;;
37383;SDS011;23258;49.718;11.082;2024-03-02T06:56:47;15.38;;;11.38;;
37383;SDS011;23258;49.718;11.082;2024-03-02T06:59:16;14.90;;;11.90;;
37383;SDS011;23258;49.718;11.082;2024-03-02T07:01:46;16.33;;;11.00;;
37383;SDS011;23258;49.718;11.082;2024-03-02T07:04:16;11.88;;;9.20;;
37383;SDS011;23258;49.718;11.082;2024-03-02T07:06:45;13.52;;;10.80;;
37383;SDS011;23258;49.718;11.082;2024-03-02T07:09:17;17.17;;;11.20;;
37383;SDS011;23258;49.718;11.082;2024-03-02T07:11:49;16.52;;;11.13;;
37383;SDS011;23258;49.718;11.082;2024-03-02T07:14:19;11.25;;;9.68;;
37383;SDS011;23258;49.718;11.082;2024-03-02T07:17:04;16.30;;;11.85;;
37383;SDS011;23258;49.718;11.082;2024-03-02T07:19:33;13.50;;;10.50;;
37383;SDS011;23258;49.718;11.082;2024-03-02T07:22:05;15.52;;;11.20;;
37383;SDS011;23258;49.718;11.082;2024-03-02T07:24:41;12.85;;;10.50;;
37383;SDS011;23258;49.718;11.082;2024-03-02T07:27:12;11.40;;;10.07;;
37383;SDS011;23258;49.718;11.082;2024-03-02T07:29:42;13.82;;;10.10;;
37383;SDS011;23258;49.718;11.082;2024-03-02T07:32:12;18.00;;;10.50;;
37383;SDS011;23258;49.718;11.082;2024-03-02T07:34:41;11.80;;;9.60;;
37383;SDS011;23258;49.718;11.082;2024-03-02T07:37:11;12.25;;;10.60;;
37383;SDS011;23258;49.718;11.082;2024-03-02T07:39:43;12.43;;;10.23;;
37383;SDS011;23258;49.718;11.082;2024-03-02T07:42:13;15.07;;;10.35;;
37383;SDS011;23258;49.718;11.082;2024-03-02T07:44:43;13.82;;;10.55;;
37383;SDS011;23258;49.718;11.082;2024-03-02T07:47:13;11.65;;;10.10;;
37383;SDS011;23258;49.718;11.082;2024-03-02T07:49:44;12.85;;;10.38;;
37383;SDS011;23258;49.718;11.082;2024-03-02T07:52:13;15.23;;;10.07;;
37383;SDS011;23258;49.718;11.082;2024-03-02T07:54:46;16.02;;;11.00;;
37383;SDS011;23258;49.718;11.082;2024-03-02T07:57:15;14.15;;;10.15;;
37383;SDS011;23258;49.718;11.082;2024-03-02T07:59:45;11.80;;;9.68;;
37383;SDS011;23258;49.718;11.082;2024-03-02T08:02:15;14.25;;;10.63;;
37383;SDS011;23258;49.718;11.082;2024-03-02T08:04:45;12.57;;;10.30;;
37383;SDS011;23258;49.718;11.082;2024-03-02T08:07:15;15.30;;;10.20;;
37383;SDS011;23258;49.718;11.082;2024-03-02T08:09:47;12.60;;;9.68;;
37383;SDS011;23258;49.718;11.082;2024-03-02T08:12:17;17.25;;;9.90;;
37383;SDS011;23258;49.718;11.082;2024-03-02T08:14:50;12.93;;;10.52;;
37383;SDS011;23258;49.718;11.082;2024-03-02T08:17:20;11.95;;;10.05;;
37383;SDS011;23258;49.718;11.082;2024-03-02T08:19:49;14.85;;;9.63;;
37383;SDS011;23258;49.718;11.082;2024-03-02T08:22:19;14.80;;;10.40;;
37383;SDS011;23258;49.718;11.082;2024-03-02T08:24:51;14.52;;;10.30;;
37383;SDS011;23258;49.718;11.082;2024-03-02T08:27:21;11.82;;;9.82;;
37383;SDS011;23258;49.718;11.082;2024-03-02T08:29:51;12.30;;;10.02;;
37383;SDS011;23258;49.718;11.082;2024-03-02T08:32:21;11.88;;;9.57;;
37383;SDS011;23258;49.718;11.082;2024-03-02T08:34:51;12.70;;;9.90;;
37383;SDS011;23258;49.718;11.082;2024-03-02T08:37:20;11.10;;;9.57;;
37383;SDS011;23258;49.718;11.082;2024-03-02T08:39:53;15.70;;;10.68;;
37383;SDS011;23258;49.718;11.082;2024-03-02T08:42:22;11.13;;;9.00;;
37383;SDS011;23258;49.718;11.082;2024-03-02T08:44:52;12.40;;;9.13;;
37383;SDS011;23258;49.718;11.082;2024-03-02T08:47:22;12.75;;;9.20;;
37383;SDS011;23258;49.718;11.082;2024-03-02T08:49:52;14.13;;;9.48;;
37383;SDS011;23258;49.718;11.082;2024-03-02T08:52:25;12.55;;;9.77;;
37383;SDS011;23258;49.718;11.082;2024-03-02T08:54:57;12.23;;;9.05;;
37383;SDS011;23258;49.718;11.082;2024-03-02T08:57:27;10.55;;;9.43;;
37383;SDS011;23258;49.718;11.082;2024-03-02T08:59:57;15.00;;;9.68;;
37383;SDS011;23258;49.718;11.082;2024-03-02T09:02:27;10.23;;;9.00;;
37383;SDS011;23258;49.718;11.082;2024-03-02T09:04:56;12.70;;;9.68;;
37383;SDS011;23258;49.718;11.082;2024-03-02T09:07:26;10.50;;;9.48;;
37383;SDS011;23258;49.718;11.082;2024-03-02T09:09:58;9.80;;;7.28;;
37383;SDS011;23258;49.718;11.082;2024-03-02T09:12:28;8.95;;;7.70;;
37383;SDS011;23258;49.718;11.082;2024-03-02T09:14:58;10.05;;;8.48;;
37383;SDS011;23258;49.718;11.082;2024-03-02T09:17:28;11.52;;;8.45;;
37383;SDS011;23258;49.718;11.082;2024-03-02T09:19:58;9.75;;;7.65;;
37383;SDS011;23258;49.718;11.082;2024-03-02T09:22:27;8.02;;;6.97;;
37383;SDS011;23258;49.718;11.082;2024-03-02T09:25:01;8.88;;;7.68;;
37383;SDS011;23258;49.718;11.082;2024-03-02T09:27:31;12.18;;;8.32;;
37383;SDS011;23258;49.718;11.082;2024-03-02T09:30:01;7.97;;;6.95;;
37383;SDS011;23258;49.718;11.082;2024-03-02T09:32:31;8.68;;;6.55;;
37383;SDS011;23258;49.718;11.082;2024-03-02T09:35:01;9.52;;;6.97;;
37383;SDS011;23258;49.718;11.082;2024-03-02T09:37:31;8.02;;;7.13;;
37383;SDS011;23258;49.718;11.082;2024-03-02T09:40:04;7.78;;;6.57;;
37383;SDS011;23258;49.718;11.082;2024-03-02T09:42:33;10.43;;;7.32;;
37383;SDS011;23258;49.718;11.082;2024-03-02T09:45:04;6.68;;;6.07;;
37383;SDS011;23258;49.718;11.082;2024-03-02T09:47:34;6.82;;;5.88;;
37383;SDS011;23258;49.718;11.082;2024-03-02T09:50:05;8.25;;;6.03;;
37383;SDS011;23258;49.718;11.082;2024-03-02T09:52:35;7.63;;;6.20;;
37383;SDS011;23258;49.718;11.082;2024-03-02T09:55:09;6.43;;;5.68;;
37383;SDS011;23258;49.718;11.082;2024-03-02T09:57:42;5.90;;;5.28;;
37383;SDS011;23258;49.718;11.082;2024-03-02T10:00:12;10.43;;;5.93;;
37383;SDS011;23258;49.718;11.082;2024-03-02T10:02:42;7.50;;;5.72;;
37383;SDS011;23258;49.718;11.082;2024-03-02T10:05:25;5.88;;;5.30;;
37383;SDS011;23258;49.718;11.082;2024-03-02T10:07:59;6.13;;;5.55;;
37383;SDS011;23258;49.718;11.082;2024-03-02T10:10:38;7.00;;;6.30;;
37383;SDS011;23258;49.718;11.082;2024-03-02T10:13:10;6.55;;;5.82;;
37383;SDS011;23258;49.718;11.082;2024-03-02T10:15:40;6.03;;;5.35;;
37383;SDS011;23258;49.718;11.082;2024-03-02T10:18:10;7.20;;;5.72;;
37383;SDS011;23258;49.718;11.082;2024-03-02T10:20:42;5.82;;;5.30;;
37383;SDS011;23258;49.718;11.082;2024-03-02T10:23:12;5.45;;;4.95;;
37383;SDS011;23258;49.718;11.082;2024-03-02T10:25:45;8.95;;;5.72;;
37383;SDS011;23258;49.718;11.082;2024-03-02T10:28:23;6.10;;;5.28;;
37383;SDS011;23258;49.718;11.082;2024-03-02T10:30:55;5.90;;;5.13;;
37383;SDS011;23258;49.718;11.082;2024-03-02T10:33:24;5.47;;;4.82;;
37383;SDS011;23258;49.718;11.082;2024-03-02T10:35:54;5.32;;;4.72;;
37383;SDS011;23258;49.718;11.082;2024-03-02T10:38:24;5.80;;;5.20;;
37383;SDS011;23258;49.718;11.082;2024-03-02T10:40:57;6.30;;;5.00;;
37383;SDS011;23258;49.718;11.082;2024-03-02T10:43:27;5.30;;;4.70;;
37383;SDS011;23258;49.718;11.082;2024-03-02T10:45:57;6.10;;;5.50;;
37383;SDS011;23258;49.718;11.082;2024-03-02T10:48:28;5.32;;;4.82;;
37383;SDS011;23258;49.718;11.082;2024-03-02T10:50:58;5.70;;;5.10;;
37383;SDS011;23258;49.718;11.082;2024-03-02T10:53:29;10.27;;;5.32;;
37383;SDS011;23258;49.718;11.082;2024-03-02T10:56:02;5.32;;;4.82;;
37383;SDS011;23258;49.718;11.082;2024-03-02T10:58:34;5.90;;;5.40;;
37383;SDS011;23258;49.718;11.082;2024-03-02T11:01:04;5.85;;;5.35;;
37383;SDS011;23258;49.718;11.082;2024-03-02T11:03:35;5.63;;;5.05;;
37383;SDS011;23258;49.718;11.082;2024-03-02T11:06:06;6.85;;;6.03;;
37383;SDS011;23258;49.718;11.082;2024-03-02T11:08:37;5.97;;;5.43;;
37383;SDS011;23258;49.718;11.082;2024-03-02T11:11:12;6.45;;;5.13;;
37383;SDS011;23258;49.718;11.082;2024-03-02T11:13:46;5.25;;;4.75;;
37383;SDS011;23258;49.718;11.082;2024-03-02T11:16:19;5.88;;;5.00;;
37383;SDS011;23258;49.718;11.082;2024-03-02T11:18:54;6.95;;;5.38;;
37383;SDS011;23258;49.718;11.082;2024-03-02T11:21:25;5.43;;;4.93;;
37383;SDS011;23258;49.718;11.082;2024-03-02T11:23:55;6.38;;;5.50;;
37383;SDS011;23258;49.718;11.082;2024-03-02T11:26:27;5.93;;;5.00;;
37383;SDS011;23258;49.718;11.082;2024-03-02T11:28:57;5.72;;;4.68;;
37383;SDS011;23258;49.718;11.082;2024-03-02T11:34:17;6.20;;;4.50;;
37383;SDS011;23258;49.718;11.082;2024-03-02T11:36:47;5.93;;;5.43;;
37383;SDS011;23258;49.718;11.082;2024-03-02T11:39:17;6.10;;;5.40;;
37383;SDS011;23258;49.718;11.082;2024-03-02T11:41:50;6.10;;;5.50;;
37383;SDS011;23258;49.718;11.082;2024-03-02T11:44:22;5.88;;;4.97;;
37383;SDS011;23258;49.718;11.082;2024-03-02T11:46:52;6.15;;;5.40;;
37383;SDS011;23258;49.718;11.082;2024-03-02T11:49:35;4.65;;;4.25;;
37383;SDS011;23258;49.718;11.082;2024-03-02T11:52:06;6.35;;;5.50;;
37383;SDS011;23258;49.718;11.082;2024-03-02T11:54:37;6.20;;;5.63;;
37383;SDS011;23258;49.718;11.082;2024-03-02T11:57:11;7.57;;;6.05;;
37383;SDS011;23258;49.718;11.082;2024-03-02T11:59:40;6.45;;;5.80;;
37383;SDS011;23258;49.718;11.082;2024-03-02T12:02:16;6.28;;;5.40;;
37383;SDS011;23258;49.718;11.082;2024-03-02T12:04:47;7.30;;;5.25;;
37383;SDS011;23258;49.718;11.082;2024-03-02T12:07:18;6.32;;;5.22;;
37383;SDS011;23258;49.718;11.082;2024-03-02T12:09:48;5.07;;;4.57;;
37383;SDS011;23258;49.718;11.082;2024-03-02T12:12:21;5.60;;;4.88;;
37383;SDS011;23258;49.718;11.082;2024-03-02T12:14:51;5.95;;;5.22;;
37383;SDS011;23258;49.718;11.082;2024-03-02T12:17:22;5.13;;;4.63;;
37383;SDS011;23258;49.718;11.082;2024-03-02T12:19:52;5.63;;;5.07;;
37383;SDS011;23258;49.718;11.082;2024-03-02T12:22:22;5.35;;;4.85;;
37383;SDS011;23258;49.718;11.082;2024-03-02T12:24:53;5.68;;;4.70;;
37383;SDS011;23258;49.718;11.082;2024-03-02T12:27:26;5.55;;;4.40;;
37383;SDS011;23258;49.718;11.082;2024-03-02T12:29:56;5.43;;;4.93;;
37383;SDS011;23258;49.718;11.082;2024-03-02T12:32:25;5.03;;;4.05;;
37383;SDS011;23258;49.718;11.082;2024-03-02T12:34:55;5.95;;;3.80;;
37383;SDS011;23258;49.718;11.082;2024-03-02T12:37:25;5.43;;;4.85;;
37383;SDS011;23258;49.718;11.082;2024-03-02T12:39:54;5.07;;;4.45;;
37383;SDS011;23258;49.718;11.082;2024-03-02T12:42:28;5.03;;;4.50;;
37383;SDS011;23258;49.718;11.082;2024-03-02T12:44:58;5.22;;;4.75;;
37383;SDS011;23258;49.718;11.082;2024-03-02T12:47:27;4.78;;;4.32;;
37383;SDS011;23258;49.718;11.082;2024-03-02T12:49:57;9.05;;;4.18;;
37383;SDS011;23258;49.718;11.082;2024-03-02T12:52:27;5.07;;;4.65;;
37383;SDS011;23258;49.718;11.082;2024-03-02T12:54:59;5.35;;;4.82;;
37383;SDS011;23258;49.718;11.082;2024-03-02T12:57:33;5.13;;;4.55;;
37383;SDS011;23258;49.718;11.082;2024-03-02T13:00:06;5.10;;;4.57;;
37383;SDS011;23258;49.718;11.082;2024-03-02T13:02:36;5.18;;;4.68;;
37383;SDS011;23258;49.718;11.082;2024-03-02T13:05:06;4.88;;;4.38;;
37383;SDS011;23258;49.718;11.082;2024-03-02T13:07:37;5.82;;;4.90;;
37383;SDS011;23258;49.718;11.082;2024-03-02T13:10:08;5.70;;;4.95;;
37383;SDS011;23258;49.718;11.082;2024-03-02T13:12:40;4.90;;;4.40;;
37383;SDS011;23258;49.718;11.082;2024-03-02T13:15:10;6.32;;;5.65;;
37383;SDS011;23258;49.718;11.082;2024-03-02T13:17:44;6.47;;;5.22;;
37383;SDS011;23258;49.718;11.082;2024-03-02T13:20:14;6.00;;;5.40;;
37383;SDS011;23258;49.718;11.082;2024-03-02T13:22:47;6.57;;;5.88;;
37383;SDS011;23258;49.718;11.082;2024-03-02T13:25:16;5.93;;;5.43;;
37383;SDS011;23258;49.718;11.082;2024-03-02T13:27:49;5.32;;;4.82;;
37383;SDS011;23258;49.718;11.082;2024-03-02T13:30:19;5.05;;;4.38;;
37383;SDS011;23258;49.718;11.082;2024-03-02T13:32:49;5.88;;;5.28;;
37383;SDS011;23258;49.718;11.082;2024-03-02T13:35:19;5.80;;;5.30;;
37383;SDS011;23258;49.718;11.082;2024-03-02T13:37:49;6.03;;;5.40;;
37383;SDS011;23258;49.718;11.082;2024-03-02T13:40:19;6.30;;;5.68;;
37383;SDS011;23258;49.718;11.082;2024-03-02T13:42:52;5.55;;;4.95;;
37383;SDS011;23258;49.718;11.082;2024-03-02T13:45:22;5.82;;;5.28;;
37383;SDS011;23258;49.718;11.082;2024-03-02T13:47:52;8.20;;;5.18;;
37383;SDS011;23258;49.718;11.082;2024-03-02T13:50:22;4.95;;;4.45;;
37383;SDS011;23258;49.718;11.082;2024-03-02T13:52:52;6.15;;;5.03;;
37383;SDS011;23258;49.718;11.082;2024-03-02T13:55:21;6.53;;;5.45;;
37383;SDS011;23258;49.718;11.082;2024-03-02T13:57:54;6.18;;;4.93;;
37383;SDS011;23258;49.718;11.082;2024-03-02T14:00:24;5.93;;;5.28;;
37383;SDS011;23258;49.718;11.082;2024-03-02T14:02:54;5.70;;;5.20;;
37383;SDS011;23258;49.718;11.082;2024-03-02T14:05:23;6.85;;;5.97;;
37383;SDS011;23258;49.718;11.082;2024-03-02T14:07:56;6.82;;;5.47;;
37383;SDS011;23258;49.718;11.082;2024-03-02T14:10:27;5.05;;;4.55;;
37383;SDS011;23258;49.718;11.082;2024-03-02T14:12:59;7.97;;;6.00;;
37383;SDS011;23258;49.718;11.082;2024-03-02T14:15:29;6.05;;;5.35;;
37383;SDS011;23258;49.718;11.082;2024-03-02T14:17:59;6.32;;;5.72;;
37383;SDS011;23258;49.718;11.082;2024-03-02T14:20:29;6.50;;;5.47;;
37383;SDS011;23258;49.718;11.082;2024-03-02T14:23:00;5.93;;;5.32;;
37383;SDS011;23258;49.718;11.082;2024-03-02T14:25:30;7.60;;;5.53;;
37383;SDS011;23258;49.718;11.082;2024-03-02T14:28:03;5.45;;;4.82;;
37383;SDS011;23258;49.718;11.082;2024-03-02T14:30:53;7.18;;;6.00;;
37383;SDS011;23258;49.718;11.082;2024-03-02T14:33:22;7.40;;;5.85;;
37383;SDS011;23258;49.718;11.082;2024-03-02T14:35:52;8.45;;;5.90;;
37383;SDS011;23258;49.718;11.082;2024-03-02T14:38:22;6.05;;;5.45;;
37383;SDS011;23258;49.718;11.082;2024-03-02T14:40:52;7.32;;;5.57;;
37383;SDS011;23258;49.718;11.082;2024-03-02T14:43:24;7.65;;;5.72;;